In Rescue
 
Open Full Screen Window  High Contrast Mode
Wind Gusting 00 knots
08
April 19, 2021 8:02 PM EDT
Weather Information
Wind Direction
  240 °
Wind Speed
  08 kt (9 mph)
Wind Gust
  00 kt (0 mph)
Altimeter
29.88 in
Visibility
10 SM
Temperature
17° C
63° F
Dewpoint
02° C
36° F
Humidity
37%
1hr Rain Fall
00.00 in.
24hr Rain Fall
00.00 in.
Sky Condition
Clear
VFR

METAR KI69 200002Z AUTO 24008KT 10SM CLR 17/02 A2988 RMK AO2 T01690019

FAA Disclaimer: The data displayed is for advisory purposes only and is not to be used for flight planning or operations.